createdAt,value
2019-01-29T00:00:50.301Z,3.40
2019-01-29T00:03:20.762Z,3.40
2019-01-29T00:05:51.275Z,3.40
2019-01-29T00:08:21.777Z,3.40
2019-01-29T00:10:52.289Z,3.40
2019-01-29T00:13:22.617Z,3.40
2019-01-29T00:15:53.141Z,3.40
2019-01-29T00:18:23.666Z,3.40
2019-01-29T00:20:53.929Z,3.40
2019-01-29T00:23:24.140Z,3.40
2019-01-29T00:25:54.484Z,3.40
2019-01-29T00:28:24.936Z,3.30
2019-01-29T00:30:55.402Z,3.30
2019-01-29T00:33:25.547Z,3.30
2019-01-29T00:35:55.900Z,3.30
2019-01-29T00:38:26.344Z,3.20
2019-01-29T00:40:57.021Z,3.30
2019-01-29T00:43:27.413Z,3.20
2019-01-29T00:45:57.883Z,3.20
2019-01-29T00:48:28.713Z,3.20
2019-01-29T00:50:59.032Z,3.20
2019-01-29T00:53:30.062Z,3.10
2019-01-29T00:56:00.378Z,3.10
2019-01-29T00:58:30.794Z,3.10
2019-01-29T01:01:01.313Z,3.10
2019-01-29T01:03:31.582Z,3.10
2019-01-29T01:06:02.121Z,3.10
2019-01-29T01:08:32.403Z,3.00
2019-01-29T01:11:03.098Z,3.00
2019-01-29T01:13:33.676Z,3.00
2019-01-29T01:16:04.312Z,3.00
2019-01-29T01:18:34.659Z,3.00
2019-01-29T01:21:05.069Z,3.00
2019-01-29T01:23:35.280Z,3.00
2019-01-29T01:26:05.716Z,3.00
2019-01-29T01:28:35.924Z,3.00
2019-01-29T01:31:06.268Z,3.00
2019-01-29T01:33:36.621Z,2.90
2019-01-29T01:36:06.880Z,2.90
2019-01-29T01:38:37.524Z,2.90
2019-01-29T01:41:07.922Z,2.90
2019-01-29T01:43:38.332Z,2.90
2019-01-29T01:46:08.618Z,2.90
2019-01-29T01:48:39.217Z,2.90
2019-01-29T01:51:09.596Z,2.90
2019-01-29T01:53:40.004Z,2.90
2019-01-29T01:56:10.689Z,2.90
2019-01-29T01:58:41.201Z,2.90
2019-01-29T02:01:11.681Z,2.90
2019-01-29T02:03:42.112Z,2.90
2019-01-29T02:06:12.259Z,2.90
2019-01-29T02:08:42.561Z,2.90
2019-01-29T02:11:13.060Z,2.90
2019-01-29T02:13:43.334Z,2.90
2019-01-29T02:16:13.697Z,2.90
2019-01-29T02:18:43.968Z,2.90
2019-01-29T02:21:14.589Z,2.90
2019-01-29T02:23:44.801Z,2.90
2019-01-29T02:26:15.340Z,2.90
2019-01-29T02:28:45.537Z,2.90
2019-01-29T02:31:16.200Z,2.80
2019-01-29T02:33:46.593Z,2.90
2019-01-29T02:36:17.163Z,2.90
2019-01-29T02:38:47.429Z,2.90
2019-01-29T02:41:17.705Z,2.90
2019-01-29T02:43:47.986Z,2.90
2019-01-29T02:46:18.320Z,2.90
2019-01-29T02:48:48.609Z,2.90
2019-01-29T02:51:19.034Z,3.00
2019-01-29T02:53:49.557Z,3.00
2019-01-29T02:56:19.957Z,2.90
2019-01-29T02:58:50.704Z,3.00
2019-01-29T03:01:21.149Z,2.90
2019-01-29T03:03:51.836Z,2.90
2019-01-29T03:06:22.204Z,2.90
2019-01-29T03:08:52.647Z,3.00
2019-01-29T03:11:23.204Z,3.00
2019-01-29T03:13:53.473Z,3.00
2019-01-29T03:16:23.828Z,3.00
2019-01-29T03:18:54.128Z,2.90
2019-01-29T03:21:24.792Z,3.00
2019-01-29T03:23:55.503Z,3.00
2019-01-29T03:26:25.873Z,3.00
2019-01-29T03:28:56.181Z,3.00
2019-01-29T03:31:26.458Z,3.00
2019-01-29T03:33:57.030Z,2.90
2019-01-29T03:36:27.573Z,2.90
2019-01-29T03:38:58.062Z,3.00
2019-01-29T03:41:28.577Z,3.00
2019-01-29T03:43:58.733Z,2.90
2019-01-29T03:46:29.344Z,2.90
2019-01-29T03:48:59.631Z,2.90
2019-01-29T03:51:29.892Z,3.00
2019-01-29T03:54:00.227Z,3.00
2019-01-29T03:56:30.495Z,3.00
2019-01-29T03:59:00.849Z,3.00
2019-01-29T04:01:31.212Z,3.00
2019-01-29T04:04:03.253Z,3.00
2019-01-29T04:06:33.464Z,3.00
2019-01-29T04:09:05.272Z,2.90
2019-01-29T04:11:35.687Z,2.90
2019-01-29T04:14:06.093Z,2.90
2019-01-29T04:16:36.444Z,3.00
2019-01-29T04:19:06.798Z,3.00
2019-01-29T04:21:37.165Z,3.00
2019-01-29T04:24:07.508Z,3.00
2019-01-29T04:26:37.791Z,3.00
2019-01-29T04:29:08.205Z,3.00
2019-01-29T04:31:38.456Z,3.00
2019-01-29T04:34:08.658Z,3.00
2019-01-29T04:36:38.872Z,3.00
2019-01-29T04:39:09.231Z,3.00
2019-01-29T04:41:39.609Z,3.00
2019-01-29T04:44:10.096Z,3.00
2019-01-29T04:46:40.424Z,3.00
2019-01-29T04:49:10.831Z,3.00
2019-01-29T04:51:41.194Z,3.00
2019-01-29T04:54:11.917Z,3.00
2019-01-29T04:56:42.461Z,3.00
2019-01-29T04:59:12.953Z,3.00
2019-01-29T05:01:43.225Z,3.00
2019-01-29T05:04:13.833Z,3.00
2019-01-29T05:06:44.042Z,3.00
2019-01-29T05:09:14.393Z,2.90
2019-01-29T05:11:45.202Z,3.00
2019-01-29T05:14:15.684Z,3.00
2019-01-29T05:16:46.173Z,3.00
2019-01-29T05:19:16.653Z,3.00
2019-01-29T05:21:46.849Z,3.00
2019-01-29T05:24:17.062Z,3.00
2019-01-29T05:26:47.344Z,3.00
2019-01-29T05:29:19.180Z,3.00
2019-01-29T05:31:49.396Z,3.00
2019-01-29T05:34:19.669Z,3.00
2019-01-29T05:36:50.033Z,3.00
2019-01-29T05:39:20.304Z,3.00
2019-01-29T05:41:50.653Z,3.00
2019-01-29T05:44:20.853Z,3.00
2019-01-29T05:46:51.240Z,3.00
2019-01-29T05:49:21.377Z,3.10
2019-01-29T05:51:51.794Z,3.10
2019-01-29T05:54:22.197Z,3.00
2019-01-29T05:56:52.625Z,3.00
2019-01-29T05:59:22.957Z,3.00
2019-01-29T06:01:53.440Z,3.00
2019-01-29T06:04:23.777Z,3.00
2019-01-29T06:06:54.234Z,3.00
2019-01-29T06:09:24.741Z,3.00
2019-01-29T06:11:55.187Z,2.90
2019-01-29T06:14:25.585Z,2.90
2019-01-29T06:16:55.788Z,2.90
2019-01-29T06:19:26.061Z,2.90
2019-01-29T06:21:56.525Z,2.90
2019-01-29T06:24:27.198Z,2.90
2019-01-29T06:26:57.674Z,3.00
2019-01-29T06:29:28.421Z,3.00
2019-01-29T06:31:58.620Z,3.00
2019-01-29T06:34:28.843Z,3.00
2019-01-29T06:36:59.181Z,3.00
2019-01-29T06:39:29.544Z,2.90
2019-01-29T06:41:59.844Z,2.90
2019-01-29T06:44:30.079Z,3.00
2019-01-29T06:47:00.605Z,2.90
2019-01-29T06:49:31.305Z,3.00
2019-01-29T06:52:01.844Z,3.00
2019-01-29T06:54:34.201Z,3.00
2019-01-29T06:57:04.411Z,3.00
2019-01-29T06:59:34.770Z,3.00
2019-01-29T07:02:08.215Z,2.90
2019-01-29T07:04:38.698Z,2.90
2019-01-29T07:07:09.161Z,2.90
2019-01-29T07:09:39.536Z,2.90
2019-01-29T07:12:09.662Z,2.90
2019-01-29T07:14:39.928Z,3.00
2019-01-29T07:17:14.859Z,2.90
2019-01-29T07:19:45.212Z,3.00
2019-01-29T07:22:15.676Z,3.00
2019-01-29T07:24:46.089Z,3.00
2019-01-29T07:27:16.368Z,3.00
2019-01-29T07:29:46.560Z,3.00
2019-01-29T07:32:16.937Z,3.00
2019-01-29T07:34:47.277Z,3.00
2019-01-29T07:37:21.926Z,3.10
2019-01-29T07:39:49.992Z,3.10
2019-01-29T07:42:20.189Z,3.10
2019-01-29T07:44:50.484Z,3.10
2019-01-29T07:47:20.787Z,3.10
2019-01-29T07:49:51.425Z,3.10
2019-01-29T07:52:21.689Z,3.10
2019-01-29T07:54:52.073Z,3.10
2019-01-29T07:57:22.842Z,3.10
2019-01-29T07:59:53.048Z,3.10
2019-01-29T08:02:23.338Z,3.10
2019-01-29T08:04:53.925Z,3.10
2019-01-29T08:07:24.062Z,3.20
2019-01-29T08:09:54.578Z,3.20
2019-01-29T08:12:24.860Z,3.20
2019-01-29T08:14:55.199Z,3.10
2019-01-29T08:17:25.572Z,3.10
2019-01-29T08:19:55.725Z,3.00
2019-01-29T08:22:25.992Z,3.00
2019-01-29T08:25:01.688Z,3.00
2019-01-29T08:27:28.093Z,3.10
2019-01-29T08:29:58.406Z,3.10
2019-01-29T08:32:28.768Z,3.10
2019-01-29T08:34:59.108Z,3.10
2019-01-29T08:37:29.307Z,3.20
2019-01-29T08:39:59.792Z,3.20
2019-01-29T08:42:30.057Z,3.30
2019-01-29T08:45:00.438Z,3.30
2019-01-29T08:47:30.841Z,3.30
2019-01-29T08:50:01.048Z,3.30
2019-01-29T08:52:31.464Z,3.30
2019-01-29T08:55:10.315Z,3.30
2019-01-29T08:57:33.717Z,3.40
2019-01-29T09:00:06.918Z,3.40
2019-01-29T09:02:37.296Z,3.30
2019-01-29T09:05:09.466Z,3.40
2019-01-29T09:07:39.908Z,3.40
2019-01-29T09:10:15.460Z,3.40
2019-01-29T09:12:45.766Z,3.40
2019-01-29T09:15:20.985Z,3.50
2019-01-29T09:17:51.361Z,3.40
2019-01-29T09:20:22.797Z,3.40
2019-01-29T09:22:53.002Z,3.50
2019-01-29T09:25:23.353Z,3.50
2019-01-29T09:27:53.638Z,3.60
2019-01-29T09:30:24.141Z,3.60
2019-01-29T09:32:54.588Z,3.70
2019-01-29T09:35:24.857Z,3.70
2019-01-29T09:37:55.137Z,3.70
2019-01-29T09:40:25.416Z,3.70
2019-01-29T09:42:55.757Z,3.70
2019-01-29T09:45:26.197Z,3.60
2019-01-29T09:47:56.726Z,3.60
2019-01-29T09:50:27.128Z,3.60
2019-01-29T09:52:58.038Z,3.60
2019-01-29T09:55:29.717Z,3.60
2019-01-29T09:58:00.364Z,3.50
2019-01-29T10:00:35.631Z,3.50
2019-01-29T10:03:06.701Z,3.50
2019-01-29T10:05:37.369Z,3.50
2019-01-29T10:08:07.704Z,3.50
2019-01-29T10:10:38.061Z,3.40
2019-01-29T10:13:08.530Z,3.40
2019-01-29T10:15:39.161Z,3.40
2019-01-29T10:18:09.610Z,3.40
2019-01-29T10:20:40.065Z,3.40
2019-01-29T10:23:10.265Z,3.40
2019-01-29T10:25:40.772Z,3.40
2019-01-29T10:28:11.021Z,3.40
2019-01-29T10:30:41.295Z,3.40
2019-01-29T10:33:11.746Z,3.50
2019-01-29T10:35:42.184Z,3.50
2019-01-29T10:38:12.397Z,3.40
2019-01-29T10:40:42.840Z,3.50
2019-01-29T10:43:13.209Z,3.50
2019-01-29T10:45:43.590Z,3.50
2019-01-29T10:48:14.017Z,3.40
2019-01-29T10:50:44.556Z,3.50
2019-01-29T10:53:14.974Z,3.50
2019-01-29T10:55:47.395Z,3.50
2019-01-29T10:58:17.626Z,3.50
2019-01-29T11:00:48.063Z,3.50
2019-01-29T11:03:18.777Z,3.60
2019-01-29T11:05:49.172Z,3.60
2019-01-29T11:08:19.578Z,3.60
2019-01-29T11:10:50.038Z,3.60
2019-01-29T11:13:20.383Z,3.60
2019-01-29T11:15:50.772Z,3.70
2019-01-29T11:18:21.176Z,3.70
2019-01-29T11:20:51.453Z,3.70
2019-01-29T11:23:21.733Z,3.70
2019-01-29T11:25:56.106Z,3.60
2019-01-29T11:28:24.319Z,3.70
2019-01-29T11:30:54.758Z,3.70
2019-01-29T11:33:25.032Z,3.70
2019-01-29T11:35:55.403Z,3.70
2019-01-29T11:38:25.787Z,3.70
2019-01-29T11:40:56.059Z,3.70
2019-01-29T11:43:26.336Z,3.70
2019-01-29T11:45:56.674Z,3.80
2019-01-29T11:48:27.131Z,3.70
2019-01-29T11:50:57.643Z,3.70
2019-01-29T11:53:27.941Z,3.70
2019-01-29T11:56:04.244Z,3.70
2019-01-29T11:58:30.148Z,3.70
2019-01-29T12:01:02.220Z,3.70
2019-01-29T12:03:32.576Z,3.70
2019-01-29T12:06:02.933Z,3.70
2019-01-29T12:08:33.206Z,3.70
2019-01-29T12:11:03.556Z,3.70
2019-01-29T12:13:33.821Z,3.70
2019-01-29T12:16:04.351Z,3.80
2019-01-29T12:18:34.688Z,3.80
2019-01-29T12:21:05.435Z,3.80
2019-01-29T12:23:35.707Z,3.80
2019-01-29T12:26:12.884Z,3.80
2019-01-29T12:28:38.036Z,3.70
2019-01-29T12:31:08.617Z,3.60
2019-01-29T12:33:39.021Z,3.50
2019-01-29T12:36:09.639Z,3.50
2019-01-29T12:38:39.969Z,3.50
2019-01-29T12:41:10.493Z,3.50
2019-01-29T12:43:40.856Z,3.50
2019-01-29T12:46:11.394Z,3.50
2019-01-29T12:48:41.656Z,3.50
2019-01-29T12:51:13.949Z,3.40
2019-01-29T12:53:44.321Z,3.40
2019-01-29T12:56:21.454Z,3.30
2019-01-29T12:58:47.165Z,3.30
2019-01-29T13:01:17.825Z,3.30
2019-01-29T13:03:49.190Z,3.30
2019-01-29T13:06:19.520Z,3.30
2019-01-29T13:08:49.805Z,3.30
2019-01-29T13:11:20.705Z,3.20
2019-01-29T13:13:51.533Z,3.20
2019-01-29T13:16:22.276Z,3.10
2019-01-29T13:18:53.161Z,3.10
2019-01-29T13:21:23.487Z,3.10
2019-01-29T13:23:54.009Z,3.10
2019-01-29T13:26:29.906Z,3.00
2019-01-29T13:28:56.553Z,3.00
2019-01-29T13:31:27.089Z,3.00
2019-01-29T13:33:57.372Z,3.00
2019-01-29T13:36:27.861Z,2.90
2019-01-29T13:38:58.484Z,2.90
2019-01-29T13:41:28.993Z,2.80
2019-01-29T13:43:59.446Z,2.80
2019-01-29T13:46:29.984Z,2.80
2019-01-29T13:49:00.288Z,2.80
2019-01-29T13:51:30.747Z,2.80
2019-01-29T13:54:01.477Z,2.80
2019-01-29T13:56:38.761Z,2.70
2019-01-29T13:59:04.193Z,2.70
2019-01-29T14:01:34.562Z,2.70
2019-01-29T14:04:06.292Z,2.70
2019-01-29T14:06:37.037Z,2.70
2019-01-29T14:09:08.269Z,2.70
2019-01-29T14:11:38.640Z,2.70
2019-01-29T14:14:09.248Z,2.60
2019-01-29T14:16:39.648Z,2.70
2019-01-29T14:19:10.196Z,2.60
2019-01-29T14:21:41.113Z,2.60
2019-01-29T14:24:11.493Z,2.60
2019-01-29T14:26:47.592Z,2.60
2019-01-29T14:29:13.997Z,2.60
2019-01-29T14:31:44.240Z,2.50
2019-01-29T14:34:14.661Z,2.60
2019-01-29T14:36:45.129Z,2.50
2019-01-29T14:39:18.624Z,2.50
2019-01-29T14:41:49.001Z,2.50
2019-01-29T14:44:19.537Z,2.50
2019-01-29T14:46:50.061Z,2.50
2019-01-29T14:49:20.442Z,2.50
2019-01-29T14:51:50.729Z,2.50
2019-01-29T14:54:21.281Z,2.50
2019-01-29T14:56:57.173Z,2.50
2019-01-29T14:59:23.905Z,2.50
2019-01-29T15:01:55.148Z,2.50
2019-01-29T15:04:25.449Z,2.50
2019-01-29T15:06:55.967Z,2.50
2019-01-29T15:09:26.470Z,2.50
2019-01-29T15:11:56.813Z,2.50
2019-01-29T15:14:27.249Z,2.50
2019-01-29T15:16:59.277Z,2.50
2019-01-29T15:19:29.685Z,2.50
2019-01-29T15:22:00.141Z,2.50
2019-01-29T15:24:30.561Z,2.50
2019-01-29T15:27:05.683Z,2.50
2019-01-29T15:29:33.111Z,2.50
2019-01-29T15:32:03.468Z,2.50
2019-01-29T15:34:33.925Z,2.50
2019-01-29T15:37:04.793Z,2.50
2019-01-29T15:39:35.273Z,2.50
2019-01-29T15:42:06.081Z,2.50
2019-01-29T15:44:36.357Z,2.50
2019-01-29T15:47:06.745Z,2.50
2019-01-29T15:49:37.525Z,2.50
2019-01-29T15:52:08.411Z,2.50
2019-01-29T15:54:38.769Z,2.50
2019-01-29T15:57:14.019Z,2.40
2019-01-29T15:59:43.056Z,2.50
2019-01-29T16:02:13.529Z,2.40
2019-01-29T16:04:43.920Z,2.40
2019-01-29T16:07:14.384Z,2.40
2019-01-29T16:09:44.941Z,2.40
2019-01-29T16:12:15.309Z,2.40
2019-01-29T16:14:45.621Z,2.40
2019-01-29T16:17:17.012Z,2.50
2019-01-29T16:19:47.649Z,2.40
2019-01-29T16:22:18.176Z,2.40
2019-01-29T16:24:48.504Z,2.40
2019-01-29T16:27:22.768Z,2.40
2019-01-29T16:29:50.635Z,2.40
2019-01-29T16:32:21.368Z,2.40
2019-01-29T16:34:51.569Z,2.40
2019-01-29T16:37:21.898Z,2.40
2019-01-29T16:39:52.098Z,2.40
2019-01-29T16:42:22.315Z,2.40
2019-01-29T16:44:52.580Z,2.40
2019-01-29T16:47:23.534Z,2.40
2019-01-29T16:49:53.801Z,2.40
2019-01-29T16:52:24.219Z,2.40
2019-01-29T16:54:54.830Z,2.40
2019-01-29T16:57:31.400Z,2.40
2019-01-29T16:59:57.253Z,2.40
2019-01-29T17:02:27.534Z,2.40
2019-01-29T17:04:57.897Z,2.40
2019-01-29T17:07:28.169Z,2.40
2019-01-29T17:09:58.388Z,2.40
2019-01-29T17:12:28.726Z,2.40
2019-01-29T17:14:59.056Z,2.30
2019-01-29T17:17:29.352Z,2.30
2019-01-29T17:19:59.758Z,2.30
2019-01-29T17:22:30.295Z,2.30
2019-01-29T17:25:00.577Z,2.40
2019-01-29T17:27:31.045Z,2.40
2019-01-29T17:30:01.387Z,2.40
2019-01-29T17:32:31.754Z,2.30
2019-01-29T17:35:02.124Z,2.30
2019-01-29T17:37:32.857Z,2.30
2019-01-29T17:40:05.093Z,2.20
2019-01-29T17:42:35.573Z,2.20
2019-01-29T17:45:08.917Z,2.20
2019-01-29T17:47:39.233Z,2.20
2019-01-29T17:50:15.129Z,2.20
2019-01-29T17:52:45.461Z,2.20
2019-01-29T17:55:16.565Z,2.20
2019-01-29T17:57:50.636Z,2.20
2019-01-29T18:00:26.029Z,2.10
2019-01-29T18:02:56.687Z,2.10
2019-01-29T18:05:27.100Z,2.10
2019-01-29T18:07:57.369Z,2.10
2019-01-29T18:10:27.822Z,2.10
2019-01-29T18:12:58.147Z,2.10
2019-01-29T18:15:30.049Z,2.20
2019-01-29T18:18:00.628Z,2.20
2019-01-29T18:20:31.148Z,2.20
2019-01-29T18:23:01.548Z,2.10
2019-01-29T18:25:32.177Z,2.10
2019-01-29T18:28:02.473Z,2.10
2019-01-29T18:30:35.113Z,2.10
2019-01-29T18:33:05.727Z,2.10
2019-01-29T18:35:36.085Z,2.10
2019-01-29T18:38:06.609Z,2.10
2019-01-29T18:40:48.949Z,2.10
2019-01-29T18:43:19.329Z,2.10
2019-01-29T18:45:49.624Z,2.10
2019-01-29T18:48:20.008Z,2.00
2019-01-29T18:50:50.506Z,2.00
2019-01-29T18:53:20.809Z,2.00
2019-01-29T18:55:51.264Z,2.00
2019-01-29T18:58:21.796Z,2.00
2019-01-29T19:00:54.620Z,2.00
2019-01-29T19:03:24.492Z,2.00
2019-01-29T19:05:54.869Z,1.90
2019-01-29T19:08:25.424Z,1.90
2019-01-29T19:10:55.804Z,1.90
2019-01-29T19:13:26.266Z,1.90
2019-01-29T19:15:56.773Z,1.90
2019-01-29T19:18:27.092Z,1.90
2019-01-29T19:20:57.460Z,1.90
2019-01-29T19:23:27.897Z,1.90
2019-01-29T19:25:58.347Z,1.90
2019-01-29T19:28:28.708Z,1.90
2019-01-29T19:30:59.162Z,1.90
2019-01-29T19:33:29.632Z,1.80
2019-01-29T19:36:00.206Z,1.80
2019-01-29T19:38:30.692Z,1.90
2019-01-29T19:41:01.173Z,1.90
2019-01-29T19:43:31.640Z,1.80
2019-01-29T19:46:02.273Z,1.80
2019-01-29T19:48:32.665Z,1.90
2019-01-29T19:51:03.241Z,1.80
2019-01-29T19:53:33.724Z,1.80
2019-01-29T19:56:04.309Z,1.80
2019-01-29T19:58:34.697Z,1.80
2019-01-29T20:01:05.572Z,1.80
2019-01-29T20:03:35.953Z,1.80
2019-01-29T20:06:06.600Z,1.80
2019-01-29T20:08:37.882Z,1.80
2019-01-29T20:11:08.242Z,1.80
2019-01-29T20:13:39.338Z,1.80
2019-01-29T20:16:09.952Z,1.80
2019-01-29T20:18:40.264Z,1.70
2019-01-29T20:21:10.709Z,1.70
2019-01-29T20:23:41.392Z,1.70
2019-01-29T20:26:11.913Z,1.70
2019-01-29T20:28:42.849Z,1.70
2019-01-29T20:31:15.034Z,1.70
2019-01-29T20:33:45.485Z,1.70
2019-01-29T20:36:15.759Z,1.60
2019-01-29T20:38:46.134Z,1.60
2019-01-29T20:41:16.486Z,1.60
2019-01-29T20:43:46.826Z,1.60
2019-01-29T20:46:17.231Z,1.60
2019-01-29T20:48:47.652Z,1.60
2019-01-29T20:51:18.050Z,1.60
2019-01-29T20:53:48.390Z,1.50
2019-01-29T20:56:18.845Z,1.50
2019-01-29T20:58:52.828Z,1.50
2019-01-29T21:01:21.152Z,1.50
2019-01-29T21:03:51.588Z,1.50
2019-01-29T21:06:22.157Z,1.50
2019-01-29T21:08:52.669Z,1.50
2019-01-29T21:11:23.052Z,1.40
2019-01-29T21:13:54.056Z,1.40
2019-01-29T21:16:24.261Z,1.40
2019-01-29T21:18:54.567Z,1.40
2019-01-29T21:21:24.941Z,1.40
2019-01-29T21:23:55.397Z,1.40
2019-01-29T21:26:25.845Z,1.40
2019-01-29T21:29:02.678Z,1.30
2019-01-29T21:31:28.252Z,1.30
2019-01-29T21:33:58.533Z,1.30
2019-01-29T21:36:30.448Z,1.20
2019-01-29T21:39:00.920Z,1.20
2019-01-29T21:41:31.808Z,1.20
2019-01-29T21:44:02.116Z,1.20
2019-01-29T21:46:32.557Z,1.20
2019-01-29T21:49:02.852Z,1.20
2019-01-29T21:51:33.141Z,1.20
2019-01-29T21:54:03.407Z,1.10
2019-01-29T21:56:33.789Z,1.10
2019-01-29T21:59:13.216Z,1.10
2019-01-29T22:01:36.084Z,1.10
2019-01-29T22:04:06.449Z,1.00
2019-01-29T22:06:36.747Z,1.00
2019-01-29T22:09:08.297Z,1.00
2019-01-29T22:11:38.592Z,1.00
2019-01-29T22:14:09.065Z,1.00
2019-01-29T22:16:39.356Z,0.80
2019-01-29T22:19:09.737Z,0.80
2019-01-29T22:21:39.938Z,0.80
2019-01-29T22:24:10.289Z,0.80
2019-01-29T22:26:40.554Z,0.80
2019-01-29T22:29:10.845Z,0.80
2019-01-29T22:31:41.184Z,0.80
2019-01-29T22:34:11.577Z,0.80
2019-01-29T22:36:42.017Z,0.80
2019-01-29T22:39:12.301Z,0.80
2019-01-29T22:41:42.638Z,0.70
2019-01-29T22:44:12.961Z,0.70
2019-01-29T22:46:43.162Z,0.70
2019-01-29T22:49:13.398Z,0.70
2019-01-29T22:51:43.653Z,0.70
2019-01-29T22:54:13.853Z,0.60
2019-01-29T22:56:44.492Z,0.60
2019-01-29T22:59:14.973Z,0.60
2019-01-29T23:01:45.531Z,0.60
2019-01-29T23:04:15.977Z,0.60
2019-01-29T23:06:51.644Z,0.50
2019-01-29T23:09:22.111Z,0.50
2019-01-29T23:11:52.378Z,0.50
2019-01-29T23:14:22.892Z,0.50
2019-01-29T23:16:53.486Z,0.50
2019-01-29T23:19:23.922Z,0.50
2019-01-29T23:21:54.238Z,0.50
2019-01-29T23:24:24.437Z,0.50
2019-01-29T23:26:54.708Z,0.50
2019-01-29T23:29:24.925Z,0.50
2019-01-29T23:31:55.497Z,0.50
2019-01-29T23:34:26.020Z,0.40
2019-01-29T23:36:56.417Z,0.40
2019-01-29T23:39:26.665Z,0.40
2019-01-29T23:41:57.008Z,0.40
2019-01-29T23:44:27.294Z,0.40
2019-01-29T23:46:57.672Z,0.30
2019-01-29T23:49:28.140Z,0.40
2019-01-29T23:51:58.453Z,0.30
2019-01-29T23:54:28.944Z,0.30
2019-01-29T23:56:59.313Z,0.20
2019-01-29T23:59:29.724Z,0.20
